WetterOnline ( https://www.wetteronline.de )

Wetter aktuell Cuxhaven

Aktuelles Wetter: Cuxhaven (12m)

6-stündlich | Neueste Meldungen
Ortszeit Temperatur Wetter
Mo, 21.10. 20:00 13.7° C bedeckt
Mo, 21.10. 14:00 12.7° C bedeckt
Mo, 21.10. 8:00 11.5° C Regen
Mo, 21.10. 2:00 11.9° C bewölkt
So, 20.10. 20:00 12.3° C leichter Regen
So, 20.10. 14:00 12.7° C bedeckt
So, 20.10. 8:00 9.6° C bedeckt
So, 20.10. 2:00 10.5° C wolkig
Ortszeit Temperatur Wetter
Di, 22.10. 1:30 11.9° C bedeckt
Di, 22.10. 1:20 11.9° C bedeckt
Di, 22.10. 1:10 12.0° C bedeckt
Di, 22.10. 1:00 11.9° C bedeckt
Di, 22.10. 0:50 11.9° C bedeckt
Di, 22.10. 0:40 11.8° C bedeckt
Di, 22.10. 0:30 11.9° C bedeckt
Di, 22.10. 0:00 11.9° C wolkig
Mo, 21.10. 23:30 12.1° C wolkenlos
Mo, 21.10. 23:00 12.1° C fast wolkenlos
Mo, 21.10. 22:30 12.6° C wolkenlos
Ortszeit Relative Feuchte Sichtweite
Mo, 21.10. 20:00 96% 4.8 km
Mo, 21.10. 14:00 100% 1.8 km
Mo, 21.10. 8:00 98% 2.5 km
Mo, 21.10. 2:00 90% 21 km
So, 20.10. 20:00 94% 9 km
So, 20.10. 14:00 89% 9 km
So, 20.10. 8:00 99% 3.9 km
So, 20.10. 2:00 97% 8 km
Ortszeit Relative Feuchte Sichtweite
Di, 22.10. 1:30 82% 70 km
Di, 22.10. 1:20 82% -
Di, 22.10. 1:10 81% -
Di, 22.10. 1:00 84% 70 km
Di, 22.10. 0:50 84% -
Di, 22.10. 0:40 84% -
Di, 22.10. 0:30 84% 70 km
Di, 22.10. 0:00 84% 70 km
Mo, 21.10. 23:30 83% 70 km
Mo, 21.10. 23:00 84% 70 km
Mo, 21.10. 22:30 83% 55 km
Ortszeit Niederschlagsmenge Niederschlagsart
Mo, 21.10. 20:00 1 l/m2 in 12 Std. -
Mo, 21.10. 14:00 1 l/m2 in 6 Std. Regen
Mo, 21.10. 8:00 2 l/m2 in 12 Std. Regen
Mo, 21.10. 2:00 0.1 l/m2 in 6 Std. Regen
So, 20.10. 20:00 0.1 l/m2 in 12 Std. Regen
So, 20.10. 14:00 0.0 l/m2 in 6 Std. -
So, 20.10. 8:00 0.0 l/m2 in 12 Std. -
So, 20.10. 2:00 0.0 l/m2 in 6 Std. -
Ortszeit Niederschlagsmenge Niederschlagsart
Di, 22.10. 1:30 0.0 l/m2 in 1 Std. -
Di, 22.10. 1:20 keine Meldung -
Di, 22.10. 1:10 keine Meldung -
Di, 22.10. 1:00 0.0 l/m2 in 1 Std. -
Di, 22.10. 0:50 keine Meldung -
Di, 22.10. 0:40 keine Meldung -
Di, 22.10. 0:30 0.0 l/m2 in 1 Std. -
Di, 22.10. 0:00 0.0 l/m2 in 1 Std. -
Mo, 21.10. 23:30 0.0 l/m2 in 1 Std. -
Mo, 21.10. 23:00 0.0 l/m2 in 1 Std. -
Mo, 21.10. 22:30 0.0 l/m2 in 1 Std. -
Ortszeit Stärke Spitze Richtung
km/h Bft. km/h Grad Sektor
Mo, 21.10. 20:00 6 1 22 190° S
Mo, 21.10. 14:00 7 2 36 130° SO
Mo, 21.10. 8:00 25 4 36 80° O
Mo, 21.10. 2:00 15 3 22 60° NO
So, 20.10. 20:00 7 2 11 120° SO
So, 20.10. 14:00 4 1 22 190° S
So, 20.10. 8:00 7 2 22 180° S
So, 20.10. 2:00 9 2 22 200° S
Ortszeit Stärke Spitze Richtung
km/h Bft. km/h Grad Sektor
Di, 22.10. 1:30 11 2 22 220° SW
Di, 22.10. 1:20 11 2 - 220° SW
Di, 22.10. 1:10 11 2 - 210° SW
Di, 22.10. 1:00 9 2 19 210° SW
Di, 22.10. 0:50 9 2 - 210° SW
Di, 22.10. 0:40 11 2 - 210° SW
Di, 22.10. 0:30 9 2 19 200° S
Di, 22.10. 0:00 11 2 29 210° SW
Mo, 21.10. 23:30 14 3 29 210° SW
Mo, 21.10. 23:00 14 3 25 210° SW
Mo, 21.10. 22:30 14 3 25 220° SW
Ortszeit Untergrenze Bedeckung Gattung
total tief tief mittel hoch
Mo, 21.10. 20:00 750 m 8/8 8/8 - - -
Mo, 21.10. 14:00 60 m 8/8 8/8 - - -
Mo, 21.10. 8:00 180 m 8/8 8/8 - - -
Mo, 21.10. 2:00 1800 m 7/8 7/8 - - -
So, 20.10. 20:00 2100 m 8/8 3/8 - - -
So, 20.10. 14:00 2700 m 8/8 8/8 - - -
So, 20.10. 8:00 3900 m 8/8 8/8 - - -
So, 20.10. 2:00 6900 m 5/8 4/8 - - -
Ortszeit Bedeckungsgrad in Achtel und Wolkenuntergrenze
Di, 22.10. 1:30 8(1140m)
Di, 22.10. 1:20 8(1140m)
Di, 22.10. 1:10 8(1170m)
Di, 22.10. 1:00 8(1200m)
Di, 22.10. 0:50 8(1200m)
Di, 22.10. 0:40 8(1200m)
Di, 22.10. 0:30 8(1170m)
Di, 22.10. 0:00 6(1080m)
Mo, 21.10. 23:30 keine Wolken
Mo, 21.10. 23:00 1(810m)
Mo, 21.10. 22:30 1(1320m)
Ortszeit Luftdruck NN (hPa) Tendenz (hPa in 3 Std.)
Mo, 21.10. 20:00 1018 + 1,6
Mo, 21.10. 14:00 1016 + 0,4
Mo, 21.10. 8:00 1015 + 1,0
Mo, 21.10. 2:00 1014 + 0,9
So, 20.10. 20:00 1012 + 1,4
So, 20.10. 14:00 1011 + 1,3
So, 20.10. 8:00 1008 + 1,1
So, 20.10. 2:00 1006 + 0,7
Ortszeit Luftdruck NN (hPa) Tendenz (hPa in 3 Std.)
Di, 22.10. 1:30 1020 + 0,6
Di, 22.10. 1:20 1020 keine Meldung
Di, 22.10. 1:10 1020 keine Meldung
Di, 22.10. 1:00 1020 + 0,9
Di, 22.10. 0:50 1020 keine Meldung
Di, 22.10. 0:40 1020 keine Meldung
Di, 22.10. 0:30 1020 + 0,8
Di, 22.10. 0:00 1020 + 0,8
Mo, 21.10. 23:30 1020 + 1,0
Mo, 21.10. 23:00 1020 + 1,1
Mo, 21.10. 22:30 1020 + 1,1
Ortszeit Schneehöhe (cm)
Mo, 21.10. 20:00 0
Mo, 21.10. 14:00 0
Mo, 21.10. 8:00 0
Mo, 21.10. 2:00 0
So, 20.10. 20:00 0
So, 20.10. 14:00 0
So, 20.10. 8:00 0
So, 20.10. 2:00 0
Ortszeit Schneehöhe (cm)
Di, 22.10. 1:30 0
Di, 22.10. 1:20 0
Di, 22.10. 1:10 0
Di, 22.10. 1:00 0
Di, 22.10. 0:50 0
Di, 22.10. 0:40 0
Di, 22.10. 0:30 0
Di, 22.10. 0:00 0
Mo, 21.10. 23:30 0
Mo, 21.10. 23:00 0
Mo, 21.10. 22:30 0
Link zu dieser Seite / Seite empfehlen

Das Wetter in ...